createdAt,value
2022-11-22T00:01:20.300Z,23.15
2022-11-22T00:03:48.590Z,23.14
2022-11-22T00:06:18.241Z,23.13
2022-11-22T00:08:46.505Z,23.13
2022-11-22T00:11:14.693Z,23.12
2022-11-22T00:13:43.024Z,23.12
2022-11-22T00:16:11.385Z,23.12
2022-11-22T00:18:39.575Z,23.11
2022-11-22T00:21:08.149Z,23.09
2022-11-22T00:23:37.898Z,23.10
2022-11-22T00:26:07.169Z,23.09
2022-11-22T00:28:35.399Z,23.09
2022-11-22T00:31:03.631Z,23.07
2022-11-22T00:33:31.865Z,23.09
2022-11-22T00:36:00.102Z,23.08
2022-11-22T00:38:28.408Z,23.08
2022-11-22T00:40:58.149Z,23.08
2022-11-22T00:43:26.457Z,23.08
2022-11-22T00:45:54.694Z,23.08
2022-11-22T00:48:22.954Z,23.06
2022-11-22T00:50:51.333Z,23.06
2022-11-22T00:53:19.553Z,23.05
2022-11-22T00:55:47.801Z,23.04
2022-11-22T00:58:17.440Z,23.05
2022-11-22T01:00:45.700Z,23.04
2022-11-22T01:03:14.411Z,23.04
2022-11-22T01:05:42.693Z,23.02
2022-11-22T01:08:11.085Z,23.04
2022-11-22T01:10:39.307Z,23.02
2022-11-22T01:13:10.329Z,23.02
2022-11-22T01:15:40.066Z,23.01
2022-11-22T01:18:08.358Z,23.01
2022-11-22T01:20:36.580Z,23.01
2022-11-22T01:23:04.929Z,23.01
2022-11-22T01:25:33.287Z,23.00
2022-11-22T01:28:01.510Z,22.99
2022-11-22T01:30:29.878Z,22.99
2022-11-22T01:32:59.638Z,22.98
2022-11-22T01:35:27.885Z,22.98
2022-11-22T01:37:56.071Z,22.97
2022-11-22T01:40:24.367Z,22.97
2022-11-22T01:42:53.885Z,22.97
2022-11-22T01:45:55.714Z,22.96
2022-11-22T01:48:52.133Z,22.96
2022-11-22T01:51:22.869Z,22.95
2022-11-22T01:53:51.288Z,22.94
2022-11-22T01:56:19.510Z,22.94
2022-11-22T01:58:49.358Z,22.94
2022-11-22T02:01:17.737Z,22.93
2022-11-22T02:03:48.192Z,22.95
2022-11-22T02:06:16.567Z,22.96
2022-11-22T02:08:48.831Z,22.95
2022-11-22T02:11:17.107Z,22.95
2022-11-22T02:13:45.380Z,22.94
2022-11-22T02:16:13.705Z,22.93
2022-11-22T02:18:41.950Z,22.94
2022-11-22T02:21:11.825Z,22.92
2022-11-22T02:23:45.992Z,22.93
2022-11-22T02:26:16.261Z,22.92
2022-11-22T02:28:44.545Z,22.91
2022-11-22T02:31:40.274Z,22.90
2022-11-22T02:34:08.657Z,22.89
2022-11-22T02:36:39.879Z,22.88
2022-11-22T02:39:08.219Z,22.90
2022-11-22T02:41:38.072Z,22.89
2022-11-22T02:44:07.646Z,22.88
2022-11-22T02:46:35.850Z,22.88
2022-11-22T02:49:04.135Z,22.87
2022-11-22T02:51:32.533Z,22.88
2022-11-22T02:54:00.858Z,22.87
2022-11-22T02:56:29.087Z,22.87
2022-11-22T02:58:58.767Z,22.85
2022-11-22T03:01:26.994Z,22.86
2022-11-22T03:03:55.339Z,22.86
2022-11-22T03:06:23.545Z,22.86
2022-11-22T03:08:56.137Z,22.85
2022-11-22T03:11:25.036Z,22.85
2022-11-22T03:13:53.305Z,22.84
2022-11-22T03:16:23.195Z,22.83
2022-11-22T03:18:51.561Z,22.83
2022-11-22T03:21:19.781Z,22.82
2022-11-22T03:23:48.045Z,22.82
2022-11-22T03:26:16.269Z,22.81
2022-11-22T03:28:44.550Z,22.81
2022-11-22T03:31:12.774Z,22.81
2022-11-22T03:33:42.556Z,22.81
2022-11-22T03:36:10.746Z,22.81
2022-11-22T03:38:39.001Z,22.81
2022-11-22T03:41:07.192Z,22.80
2022-11-22T03:43:35.481Z,22.79
2022-11-22T03:46:03.590Z,22.80
2022-11-22T03:48:31.973Z,22.77
2022-11-22T03:51:06.348Z,22.78
2022-11-22T03:53:34.745Z,22.78
2022-11-22T03:56:02.966Z,22.78
2022-11-22T03:58:31.396Z,22.78
2022-11-22T04:00:59.819Z,22.77
2022-11-22T04:03:28.345Z,22.77
2022-11-22T04:05:56.624Z,22.76
2022-11-22T04:08:26.300Z,22.76
2022-11-22T04:10:54.760Z,22.76
2022-11-22T04:13:43.206Z,22.75
2022-11-22T04:16:10.430Z,22.74
2022-11-22T04:18:38.849Z,22.75
2022-11-22T04:21:24.667Z,22.74
2022-11-22T04:24:08.234Z,22.73
2022-11-22T04:26:36.558Z,22.72
2022-11-22T04:29:10.178Z,22.72
2022-11-22T04:31:56.511Z,22.72
2022-11-22T04:34:25.225Z,22.72
2022-11-22T04:36:53.416Z,22.72
2022-11-22T04:39:23.201Z,22.72
2022-11-22T04:42:13.921Z,22.71
2022-11-22T04:44:41.240Z,22.71
2022-11-22T04:47:09.565Z,22.71
2022-11-22T04:49:37.908Z,22.70
2022-11-22T04:52:23.665Z,22.70
2022-11-22T04:54:53.461Z,22.70
2022-11-22T04:57:21.762Z,22.69
2022-11-22T04:59:50.006Z,22.70
2022-11-22T05:02:18.260Z,22.68
2022-11-22T05:04:50.652Z,22.68
2022-11-22T05:07:19.499Z,22.69
2022-11-22T05:09:47.962Z,22.67
2022-11-22T05:12:17.752Z,22.68
2022-11-22T05:14:45.996Z,22.68
2022-11-22T05:17:14.326Z,22.67
2022-11-22T05:19:48.900Z,22.68
2022-11-22T05:22:17.952Z,22.68
2022-11-22T05:24:45.352Z,22.67
2022-11-22T05:27:13.597Z,22.68
2022-11-22T05:29:43.500Z,22.68
2022-11-22T05:32:12.095Z,22.67
2022-11-22T05:34:40.370Z,22.67
2022-11-22T05:37:08.667Z,22.67
2022-11-22T05:39:36.853Z,22.68
2022-11-22T05:42:06.083Z,22.68
2022-11-22T05:44:34.302Z,22.68
2022-11-22T05:47:04.057Z,22.69
2022-11-22T05:49:33.393Z,22.70
2022-11-22T05:52:01.693Z,22.70
2022-11-22T05:54:30.077Z,22.69
2022-11-22T05:56:58.270Z,22.69
2022-11-22T05:59:26.564Z,22.69
2022-11-22T06:01:54.839Z,22.70
2022-11-22T06:04:24.674Z,22.71
2022-11-22T06:06:52.909Z,22.70
2022-11-22T06:09:21.177Z,22.71
2022-11-22T06:11:49.557Z,22.72
2022-11-22T06:14:17.901Z,22.73
2022-11-22T06:16:46.139Z,22.73
2022-11-22T06:19:14.492Z,22.74
2022-11-22T06:21:44.209Z,22.74
2022-11-22T06:24:12.644Z,22.74
2022-11-22T06:26:40.945Z,22.74
2022-11-22T06:29:09.158Z,22.75
2022-11-22T06:31:37.437Z,22.75
2022-11-22T06:34:06.513Z,22.75
2022-11-22T06:36:35.553Z,22.77
2022-11-22T06:39:33.188Z,22.77
2022-11-22T06:42:03.000Z,22.76
2022-11-22T06:44:31.275Z,22.78
2022-11-22T06:46:59.622Z,22.78
2022-11-22T06:49:28.013Z,22.79
2022-11-22T06:51:56.485Z,22.79
2022-11-22T06:54:26.312Z,22.78
2022-11-22T06:56:54.600Z,22.79
2022-11-22T06:59:22.903Z,22.78
2022-11-22T07:01:51.457Z,22.79
2022-11-22T07:04:20.824Z,22.79
2022-11-22T07:06:49.118Z,22.77
2022-11-22T07:09:17.421Z,22.77
2022-11-22T07:11:47.152Z,22.77
2022-11-22T07:14:15.409Z,22.77
2022-11-22T07:16:43.601Z,22.77
2022-11-22T07:19:11.882Z,22.77
2022-11-22T07:21:40.074Z,22.77
2022-11-22T07:24:09.823Z,22.77
2022-11-22T07:26:38.235Z,22.76
2022-11-22T07:29:07.958Z,22.76
2022-11-22T07:31:36.302Z,22.76
2022-11-22T07:34:04.602Z,22.77
2022-11-22T07:36:32.918Z,22.76
2022-11-22T07:39:01.815Z,22.75
2022-11-22T07:41:29.980Z,22.74
2022-11-22T07:43:58.592Z,22.75
2022-11-22T07:46:31.435Z,22.74
2022-11-22T07:49:00.267Z,22.73
2022-11-22T07:51:28.549Z,22.74
2022-11-22T07:53:56.896Z,22.74
2022-11-22T07:56:25.346Z,22.74
2022-11-22T07:58:54.132Z,22.73
2022-11-22T08:01:23.755Z,22.73
2022-11-22T08:03:53.655Z,22.74
2022-11-22T08:06:21.974Z,22.74
2022-11-22T08:08:50.391Z,22.72
2022-11-22T08:11:18.589Z,22.73
2022-11-22T08:13:46.889Z,22.72
2022-11-22T08:16:16.274Z,22.73
2022-11-22T08:18:47.579Z,22.72
2022-11-22T08:21:17.924Z,22.72
2022-11-22T08:23:46.479Z,22.72
2022-11-22T08:26:15.781Z,22.72
2022-11-22T08:28:44.691Z,22.72
2022-11-22T08:31:14.175Z,22.72
2022-11-22T08:33:42.716Z,22.72
2022-11-22T08:36:11.086Z,22.72
2022-11-22T08:38:40.737Z,22.72
2022-11-22T08:41:08.984Z,22.72
2022-11-22T08:43:37.356Z,22.72
2022-11-22T08:46:05.845Z,22.72
2022-11-22T08:48:34.988Z,22.69
2022-11-22T08:51:03.901Z,22.70
2022-11-22T08:53:33.181Z,22.72
2022-11-22T08:56:03.570Z,22.74
2022-11-22T08:58:32.326Z,22.75
2022-11-22T09:01:05.495Z,22.76
2022-11-22T09:03:33.896Z,22.77
2022-11-22T09:08:58.619Z,22.79
2022-11-22T09:11:38.903Z,22.79
2022-11-22T09:14:07.386Z,22.80
2022-11-22T09:16:35.664Z,22.81
2022-11-22T09:19:03.956Z,22.83
2022-11-22T09:21:32.266Z,22.81
2022-11-22T09:24:00.544Z,22.81
2022-11-22T09:26:28.797Z,22.80
2022-11-22T09:28:59.272Z,22.80
2022-11-22T09:31:27.619Z,22.81
2022-11-22T09:33:56.145Z,22.81
2022-11-22T09:36:26.488Z,22.81
2022-11-22T09:38:54.825Z,22.80
2022-11-22T09:41:51.561Z,22.77
2022-11-22T09:44:24.555Z,22.74
2022-11-22T09:46:54.089Z,22.71
2022-11-22T09:49:30.038Z,22.68
2022-11-22T09:52:04.817Z,22.66
2022-11-22T09:54:38.272Z,22.64
2022-11-22T09:57:06.648Z,22.63
2022-11-22T09:59:36.870Z,22.60
2022-11-22T10:02:18.049Z,22.58
2022-11-22T10:04:48.999Z,22.57
2022-11-22T10:07:19.322Z,22.57
2022-11-22T10:09:49.477Z,22.54
2022-11-22T10:12:19.576Z,22.53
2022-11-22T10:14:53.661Z,22.55
2022-11-22T10:17:29.597Z,22.56
2022-11-22T10:20:03.224Z,22.58
2022-11-22T10:22:31.596Z,22.60
2022-11-22T10:25:00.786Z,22.61
2022-11-22T10:27:30.118Z,22.63
2022-11-22T10:30:01.516Z,22.64
2022-11-22T10:32:31.382Z,22.67
2022-11-22T10:35:10.345Z,22.67
2022-11-22T10:37:41.921Z,22.70
2022-11-22T10:40:15.292Z,22.71
2022-11-22T10:42:55.164Z,22.73
2022-11-22T10:45:27.293Z,22.74
2022-11-22T10:48:01.111Z,22.76
2022-11-22T10:50:33.616Z,22.76
2022-11-22T10:53:03.345Z,22.77
2022-11-22T10:55:43.070Z,22.79
2022-11-22T10:58:16.876Z,22.80
2022-11-22T11:00:48.451Z,22.81
2022-11-22T11:03:27.492Z,22.83
2022-11-22T11:11:35.386Z,22.83
2022-11-22T11:14:06.028Z,22.82
2022-11-22T11:16:36.974Z,22.84
2022-11-22T11:19:12.603Z,22.87
2022-11-22T11:21:40.910Z,22.88
2022-11-22T11:24:13.560Z,22.88
2022-11-22T11:26:42.809Z,22.88
2022-11-22T11:29:37.614Z,22.89
2022-11-22T11:32:13.461Z,22.89
2022-11-22T11:34:43.388Z,22.89
2022-11-22T11:37:20.516Z,22.90
2022-11-22T11:39:48.838Z,22.89
2022-11-22T11:42:25.338Z,22.87
2022-11-22T11:44:53.673Z,22.83
2022-11-22T11:47:33.559Z,22.71
2022-11-22T11:50:01.842Z,22.64
2022-11-22T11:52:31.720Z,22.66
2022-11-22T11:55:01.073Z,22.68
2022-11-22T11:57:29.974Z,22.69
2022-11-22T11:59:59.318Z,22.70
2022-11-22T12:02:31.339Z,22.70
2022-11-22T12:05:01.116Z,22.71
2022-11-22T12:07:31.122Z,22.72
2022-11-22T12:09:59.380Z,22.69
2022-11-22T12:12:39.735Z,22.56
2022-11-22T12:15:13.872Z,22.47
2022-11-22T12:17:51.273Z,22.41
2022-11-22T12:20:21.855Z,22.43
2022-11-22T12:22:57.116Z,22.49
2022-11-22T12:25:33.387Z,22.52
2022-11-22T12:28:04.777Z,22.56
2022-11-22T12:30:33.284Z,22.53
2022-11-22T12:33:04.104Z,22.49
2022-11-22T12:35:44.375Z,22.51
2022-11-22T12:38:14.350Z,22.53
2022-11-22T12:40:43.384Z,22.55
2022-11-22T12:43:15.713Z,22.55
2022-11-22T12:45:44.842Z,22.54
2022-11-22T12:48:17.847Z,22.56
2022-11-22T12:50:47.313Z,22.57
2022-11-22T12:53:16.922Z,22.57
2022-11-22T12:55:46.392Z,22.60
2022-11-22T12:58:19.892Z,22.61
2022-11-22T13:00:55.719Z,22.56
2022-11-22T13:03:28.734Z,22.56
2022-11-22T13:05:58.483Z,22.57
2022-11-22T13:08:29.261Z,22.58
2022-11-22T13:10:59.296Z,22.59
2022-11-22T13:13:29.458Z,22.60
2022-11-22T13:15:58.169Z,22.61
2022-11-22T13:18:28.832Z,22.62
2022-11-22T13:20:59.497Z,22.63
2022-11-22T13:23:36.924Z,22.64
2022-11-22T13:26:11.701Z,22.64
2022-11-22T13:28:42.890Z,22.65
2022-11-22T13:31:18.602Z,22.64
2022-11-22T13:33:56.661Z,22.65
2022-11-22T13:36:46.052Z,22.65
2022-11-22T13:39:17.811Z,22.65
2022-11-22T13:41:52.698Z,22.64
2022-11-22T13:44:46.500Z,22.64
2022-11-22T13:47:36.010Z,22.64
2022-11-22T13:50:20.773Z,22.64
2022-11-22T13:52:52.931Z,22.64
2022-11-22T13:55:29.098Z,22.65
2022-11-22T13:57:57.413Z,22.66
2022-11-22T14:00:46.463Z,22.66
2022-11-22T14:03:41.191Z,22.67
2022-11-22T14:06:31.869Z,22.67
2022-11-22T14:09:17.893Z,22.68
2022-11-22T14:11:50.730Z,22.69
2022-11-22T14:14:20.600Z,22.68
2022-11-22T14:16:53.440Z,22.70
2022-11-22T14:19:43.845Z,22.71
2022-11-22T14:22:19.812Z,22.71
2022-11-22T14:25:17.944Z,22.71
2022-11-22T14:27:50.080Z,22.71
2022-11-22T14:30:19.518Z,22.71
2022-11-22T14:32:58.076Z,22.72
2022-11-22T14:35:31.399Z,22.72
2022-11-22T14:38:06.281Z,22.72
2022-11-22T14:40:36.479Z,22.72
2022-11-22T14:43:21.733Z,22.72
2022-11-22T14:45:51.767Z,22.74
2022-11-22T14:48:21.197Z,22.74
2022-11-22T14:50:52.060Z,22.74
2022-11-22T14:53:26.384Z,22.72
2022-11-22T14:55:57.850Z,22.71
2022-11-22T14:58:28.537Z,22.72
2022-11-22T15:01:12.169Z,22.70
2022-11-22T15:09:16.476Z,22.71
2022-11-22T15:09:21.647Z,22.71
2022-11-22T15:10:24.525Z,22.71
2022-11-22T15:13:22.545Z,22.71
2022-11-22T15:59:10.150Z,22.75
2022-11-22T16:01:40.207Z,22.77
2022-11-22T16:04:21.233Z,22.76
2022-11-22T16:06:51.892Z,22.78
2022-11-22T16:09:25.033Z,22.78
2022-11-22T16:12:01.666Z,22.78
2022-11-22T16:14:46.548Z,22.79
2022-11-22T16:17:26.028Z,22.80
2022-11-22T16:20:16.309Z,22.80
2022-11-22T16:22:44.544Z,22.79
2022-11-22T16:25:24.226Z,22.80
2022-11-22T16:27:52.509Z,22.81
2022-11-22T16:30:23.628Z,22.81
2022-11-22T16:32:56.540Z,22.81
2022-11-22T16:35:30.069Z,22.82
2022-11-22T16:37:58.579Z,22.81
2022-11-22T16:40:26.776Z,22.83
2022-11-22T16:42:55.046Z,22.82
2022-11-22T16:45:23.655Z,22.83
2022-11-22T16:48:16.673Z,22.83
2022-11-22T16:50:44.496Z,22.84
2022-11-22T16:53:13.652Z,22.86
2022-11-22T16:55:42.143Z,22.85
2022-11-22T16:58:17.899Z,22.85
2022-11-22T17:00:46.262Z,22.85
2022-11-22T17:03:16.172Z,22.86
2022-11-22T17:05:46.069Z,22.86
2022-11-22T17:08:16.134Z,22.87
2022-11-22T17:10:47.432Z,22.87
2022-11-22T17:13:20.611Z,22.87
2022-11-22T17:15:49.093Z,22.87
2022-11-22T17:18:17.318Z,22.88
2022-11-22T17:20:47.079Z,22.89
2022-11-22T17:23:18.474Z,22.88
2022-11-22T17:25:46.799Z,22.89
2022-11-22T17:28:14.999Z,22.91
2022-11-22T17:30:43.308Z,22.91
2022-11-22T17:33:11.956Z,22.92
2022-11-22T17:35:40.280Z,22.91
2022-11-22T17:38:10.117Z,22.92
2022-11-22T17:40:38.525Z,22.93
2022-11-22T17:43:06.737Z,22.93
2022-11-22T17:45:40.326Z,22.94
2022-11-22T17:48:08.609Z,22.95
2022-11-22T17:50:39.538Z,22.96
2022-11-22T17:53:09.685Z,22.97
2022-11-22T17:56:08.548Z,22.97
2022-11-22T17:58:27.674Z,22.98
2022-11-22T18:01:03.597Z,22.99
2022-11-22T18:03:31.903Z,23.00
2022-11-22T18:06:00.430Z,23.01
2022-11-22T18:08:30.185Z,23.01
2022-11-22T18:10:59.792Z,23.05
2022-11-22T18:13:28.104Z,23.08
2022-11-22T18:16:01.695Z,23.10
2022-11-22T18:21:20.529Z,23.15
2022-11-22T18:23:50.191Z,23.15
2022-11-22T18:31:55.442Z,23.20
2022-11-22T18:34:23.750Z,23.21
2022-11-22T18:37:00.450Z,23.22
2022-11-22T18:39:32.132Z,23.22
2022-11-22T18:42:00.749Z,23.23
2022-11-22T18:44:29.231Z,23.23
2022-11-22T18:46:57.549Z,23.24
2022-11-22T18:49:25.779Z,23.25
2022-11-22T18:51:54.185Z,23.25
2022-11-22T18:54:22.970Z,23.25
2022-11-22T18:56:52.959Z,23.25
2022-11-22T18:59:21.242Z,23.26
2022-11-22T19:01:49.498Z,23.26
2022-11-22T19:04:17.920Z,23.27
2022-11-22T19:06:46.145Z,23.28
2022-11-22T19:09:14.432Z,23.28
2022-11-22T19:11:42.828Z,23.29
2022-11-22T19:14:12.708Z,23.29
2022-11-22T19:16:41.063Z,23.30
2022-11-22T19:19:11.508Z,23.32
2022-11-22T19:21:39.872Z,23.34
2022-11-22T19:24:08.683Z,23.35
2022-11-22T19:26:40.383Z,23.36
2022-11-22T19:29:08.857Z,23.37
2022-11-22T19:31:38.569Z,23.38
2022-11-22T19:34:07.049Z,23.37
2022-11-22T19:36:36.304Z,23.37
2022-11-22T19:39:05.560Z,23.38
2022-11-22T19:41:33.943Z,23.38
2022-11-22T19:44:02.359Z,23.38
2022-11-22T19:46:30.674Z,23.39
2022-11-22T19:49:01.681Z,23.38
2022-11-22T19:51:30.976Z,23.38
2022-11-22T19:54:00.189Z,23.38
2022-11-22T19:56:30.391Z,23.38
2022-11-22T19:58:59.767Z,23.39
2022-11-22T20:01:29.081Z,23.39
2022-11-22T20:03:58.721Z,23.40
2022-11-22T20:06:28.969Z,23.39
2022-11-22T20:09:01.658Z,23.41
2022-11-22T20:11:30.285Z,23.40
2022-11-22T20:13:58.523Z,23.42
2022-11-22T20:16:27.473Z,23.42
2022-11-22T20:18:55.757Z,23.42
2022-11-22T20:21:24.129Z,23.43
2022-11-22T20:23:53.936Z,23.41
2022-11-22T20:26:22.624Z,23.40
2022-11-22T20:28:55.733Z,23.38
2022-11-22T20:31:24.113Z,23.36
2022-11-22T20:33:52.981Z,23.36
2022-11-22T20:36:21.956Z,23.35
2022-11-22T20:38:50.179Z,23.34
2022-11-22T20:41:21.600Z,23.32
2022-11-22T20:43:50.716Z,23.32
2022-11-22T20:46:19.757Z,23.31
2022-11-22T20:48:48.242Z,23.30
2022-11-22T20:51:17.582Z,23.29
2022-11-22T20:53:46.107Z,23.27
2022-11-22T20:56:14.405Z,23.27
2022-11-22T20:58:44.208Z,23.27
2022-11-22T21:01:14.184Z,23.27
2022-11-22T21:03:42.494Z,23.28
2022-11-22T21:06:11.313Z,23.27
2022-11-22T21:08:39.621Z,23.26
2022-11-22T21:11:08.858Z,23.25
2022-11-22T21:13:37.262Z,23.24
2022-11-22T21:16:21.458Z,23.22
2022-11-22T21:18:51.736Z,23.22
2022-11-22T21:21:23.163Z,23.21
2022-11-22T21:23:51.845Z,23.20
2022-11-22T21:26:20.080Z,23.19
2022-11-22T21:28:48.509Z,23.17
2022-11-22T21:31:18.204Z,23.17
2022-11-22T21:33:46.879Z,23.16
2022-11-22T21:36:15.295Z,23.16
2022-11-22T21:38:43.563Z,23.15
2022-11-22T21:41:38.911Z,23.13
2022-11-22T21:44:02.702Z,23.12
2022-11-22T21:46:32.365Z,23.11
2022-11-22T21:49:00.731Z,23.09
2022-11-22T21:51:29.008Z,23.09
2022-11-22T21:53:58.847Z,23.08
2022-11-22T21:56:27.341Z,23.07
2022-11-22T21:58:55.908Z,23.06
2022-11-22T22:01:24.426Z,23.05
2022-11-22T22:03:54.302Z,23.05
2022-11-22T22:06:22.657Z,23.04
2022-11-22T22:08:50.953Z,23.04
2022-11-22T22:11:19.261Z,23.03
2022-11-22T22:13:47.503Z,23.01
2022-11-22T22:16:19.200Z,23.01
2022-11-22T22:18:47.785Z,22.99
2022-11-22T22:21:18.135Z,22.99
2022-11-22T22:23:46.568Z,22.97
2022-11-22T22:26:15.628Z,22.96
2022-11-22T22:28:45.130Z,22.96
2022-11-22T22:31:14.680Z,22.97
2022-11-22T22:33:43.224Z,22.97
2022-11-22T22:36:11.785Z,22.98
2022-11-22T22:38:41.909Z,22.98
2022-11-22T22:41:11.923Z,22.98
2022-11-22T22:43:41.041Z,22.98
2022-11-22T22:46:11.361Z,22.97
2022-11-22T22:48:39.800Z,22.95
2022-11-22T22:51:08.615Z,22.95
2022-11-22T22:53:36.961Z,22.93
2022-11-22T22:56:08.121Z,22.93
2022-11-22T22:58:37.179Z,22.92
2022-11-22T23:01:06.865Z,22.91
2022-11-22T23:03:36.048Z,22.91
2022-11-22T23:06:08.220Z,22.88
2022-11-22T23:08:36.629Z,22.88
2022-11-22T23:11:07.714Z,22.87
2022-11-22T23:13:36.339Z,22.87
2022-11-22T23:16:04.843Z,22.86
2022-11-22T23:18:35.686Z,22.85
2022-11-22T23:21:04.284Z,22.84
2022-11-22T23:23:32.587Z,22.83
2022-11-22T23:26:02.976Z,22.83
2022-11-22T23:28:33.755Z,22.82
2022-11-22T23:31:06.466Z,22.81
2022-11-22T23:33:34.993Z,22.80
2022-11-22T23:36:04.737Z,22.78
2022-11-22T23:38:33.004Z,22.78
2022-11-22T23:41:01.241Z,22.77
2022-11-22T23:43:29.692Z,22.77
2022-11-22T23:45:59.896Z,22.78
2022-11-22T23:48:28.327Z,22.78
2022-11-22T23:50:56.589Z,22.77
2022-11-22T23:53:24.916Z,22.78
2022-11-22T23:55:53.077Z,22.76
2022-11-22T23:58:21.255Z,22.78
